Huvudsida
METAR-TAF:

METAR-TAF

Flygplatser :

Stockholm Skavsta Airport

Stockholm-Skavsta, Sverige

latitud: 58-47N, longitud: 016-55E, höjd: 43 m

Aktuellt väderrapport

Denna rapport gjordes för 20 minuter sedan, klockan 17:20 UTC
Vind 18 kt från väst/sydväst
Temperatur 11°C
Fuktighet 62%
Tryck 998 hPa
Sikt 10 km eller mer
Inga moln under 1 500 m eller inga cumulonimbus

METAR: ESKN 221720Z 25018KT CAVOK 11/04 Q0998

Tid: 19:40 (17:40 UTC)

Väderprognos

Denna rapport gjordes för 10 minuter sedan, klockan 17:30 UTC
Prognos gäller från 22 kl. 18 UTC till 23 kl. 18 UTC
Vind 13 kt från sydväst
Sikt 10 km eller mer
Inga moln under 1 500 m eller inga cumulonimbus
Blir
från 23 kl. 07 UTC till 23 kl. 09 UTC
Vind 10 kt från väst

TAF: ESKN 221730Z 2218/2318 22013KT CAVOK BECMG 2307/2309 28010KT

Aktuella väderrapporter och prognoser från 4000 flygplatser (METAR- och TAF-rapporter).

De tillgängliga stationerna syns som gula och röda prickar på kartan.

För musen över prickarna för att se namnen på stationerna.

Klicka sedan för att få väderrapporter och prognoser.

För att ändra kartan: Klicka på de gröna knapparna med ett svart kors på för att zooma in; den gröna knappen med ett streck på för att zooma ut; eller på de gröna pilarna för angränsande kartor.


METAR-TAF: